createdAt,value
2018-11-05T00:01:35.382Z,28.03
2018-11-05T00:04:04.142Z,29.43
2018-11-05T00:06:32.830Z,31.97
2018-11-05T00:09:01.463Z,26.33
2018-11-05T00:11:30.183Z,28.13
2018-11-05T00:13:58.860Z,28.33
2018-11-05T00:16:27.536Z,29.93
2018-11-05T00:18:56.267Z,29.40
2018-11-05T00:21:24.921Z,31.47
2018-11-05T00:23:53.635Z,26.93
2018-11-05T00:26:22.269Z,28.50
2018-11-05T00:28:50.892Z,28.83
2018-11-05T00:31:19.573Z,27.47
2018-11-05T00:33:48.282Z,27.70
2018-11-05T00:36:16.945Z,27.37
2018-11-05T00:38:45.561Z,31.27
2018-11-05T00:41:14.249Z,28.90
2018-11-05T00:43:42.899Z,27.17
2018-11-05T00:46:11.553Z,28.00
2018-11-05T00:48:40.318Z,33.17
2018-11-05T00:51:09.012Z,31.90
2018-11-05T00:53:37.692Z,33.07
2018-11-05T00:56:06.465Z,32.03
2018-11-05T00:58:35.125Z,27.40
2018-11-05T01:01:03.805Z,29.97
2018-11-05T01:03:32.468Z,31.27
2018-11-05T01:06:01.047Z,31.10
2018-11-05T01:08:29.728Z,29.93
2018-11-05T01:10:58.436Z,28.20
2018-11-05T01:13:27.094Z,27.20
2018-11-05T01:15:55.740Z,27.20
2018-11-05T01:18:24.384Z,26.40
2018-11-05T01:20:53.076Z,29.50
2018-11-05T01:23:21.705Z,27.60
2018-11-05T01:25:50.375Z,28.43
2018-11-05T01:28:19.027Z,29.23
2018-11-05T01:30:47.630Z,28.40
2018-11-05T01:33:16.350Z,28.60
2018-11-05T01:35:45.016Z,28.73
2018-11-05T01:38:13.706Z,33.20
2018-11-05T01:40:42.328Z,30.23
2018-11-05T01:43:11.168Z,30.50
2018-11-05T01:45:39.816Z,29.40
2018-11-05T01:48:08.436Z,32.33
2018-11-05T01:50:37.158Z,31.93
2018-11-05T01:53:06.291Z,35.00
2018-11-05T01:55:34.968Z,30.07
2018-11-05T01:58:03.663Z,30.77
2018-11-05T02:00:32.321Z,29.50
2018-11-05T02:03:00.973Z,31.27
2018-11-05T02:05:29.661Z,33.37
2018-11-05T02:07:58.309Z,30.67
2018-11-05T02:10:27.104Z,29.40
2018-11-05T02:12:55.660Z,29.57
2018-11-05T02:15:24.305Z,30.83
2018-11-05T02:17:53.048Z,28.77
2018-11-05T02:20:21.692Z,28.93
2018-11-05T02:22:50.361Z,35.47
2018-11-05T02:25:18.975Z,29.47
2018-11-05T02:27:47.621Z,30.20
2018-11-05T02:30:17.760Z,30.53
2018-11-05T02:32:46.963Z,30.30
2018-11-05T02:35:16.574Z,29.30
2018-11-05T02:37:46.012Z,35.07
2018-11-05T02:40:16.909Z,35.83
2018-11-05T02:42:46.000Z,39.70
2018-11-05T02:45:15.658Z,37.33
2018-11-05T02:47:44.315Z,35.97
2018-11-05T02:50:13.606Z,36.60
2018-11-05T02:52:43.189Z,32.87
2018-11-05T02:55:11.890Z,31.87
2018-11-05T02:57:40.524Z,35.00
2018-11-05T03:00:11.678Z,36.97
2018-11-05T03:02:40.497Z,33.70
2018-11-05T03:05:11.346Z,35.07
2018-11-05T03:07:39.996Z,38.37
2018-11-05T03:10:09.828Z,36.53
2018-11-05T03:12:38.780Z,35.23
2018-11-05T03:15:08.658Z,31.67
2018-11-05T03:17:37.429Z,32.77
2018-11-05T03:20:07.220Z,32.17
2018-11-05T03:22:35.884Z,34.73
2018-11-05T03:25:04.866Z,34.07
2018-11-05T03:27:33.585Z,40.80
2018-11-05T03:30:02.309Z,35.80
2018-11-05T03:32:30.985Z,41.10
2018-11-05T03:34:59.613Z,39.97
2018-11-05T03:37:28.317Z,40.90
2018-11-05T03:39:57.006Z,38.43
2018-11-05T03:42:25.668Z,39.30
2018-11-05T03:44:54.295Z,37.87
2018-11-05T03:47:22.965Z,43.80
2018-11-05T03:49:51.635Z,42.17
2018-11-05T03:52:20.320Z,44.00
2018-11-05T03:54:49.033Z,42.77
2018-11-05T03:57:17.689Z,41.77
2018-11-05T03:59:46.819Z,39.80
2018-11-05T04:02:15.488Z,42.13
2018-11-05T04:04:44.513Z,41.00
2018-11-05T04:07:13.195Z,38.57
2018-11-05T04:09:41.910Z,37.37
2018-11-05T04:12:10.626Z,41.27
2018-11-05T04:14:39.312Z,37.40
2018-11-05T04:17:08.022Z,36.07
2018-11-05T04:19:36.701Z,37.50
2018-11-05T04:22:05.440Z,37.60
2018-11-05T04:24:34.131Z,36.40
2018-11-05T04:27:02.794Z,37.50
2018-11-05T04:29:31.445Z,37.77
2018-11-05T04:32:00.101Z,39.80
2018-11-05T04:34:28.768Z,40.37
2018-11-05T04:36:57.449Z,40.50
2018-11-05T04:39:26.116Z,39.70
2018-11-05T04:41:54.722Z,39.33
2018-11-05T04:44:23.337Z,41.47
2018-11-05T04:46:51.975Z,39.27
2018-11-05T04:49:20.564Z,44.07
2018-11-05T04:51:49.338Z,41.37
2018-11-05T04:54:17.985Z,46.10
2018-11-05T04:56:46.641Z,45.50
2018-11-05T04:59:15.330Z,47.27
2018-11-05T05:01:43.962Z,46.57
2018-11-05T05:04:12.594Z,41.17
2018-11-05T05:06:41.268Z,44.10
2018-11-05T05:09:11.751Z,45.20
2018-11-05T05:11:40.565Z,47.67
2018-11-05T05:14:09.294Z,46.93
2018-11-05T05:16:38.441Z,46.30
2018-11-05T05:19:07.244Z,42.80
2018-11-05T05:21:35.868Z,43.40
2018-11-05T05:24:04.613Z,47.00
2018-11-05T05:26:33.276Z,48.33
2018-11-05T05:29:01.933Z,45.13
2018-11-05T05:31:30.641Z,47.90
2018-11-05T05:33:59.264Z,46.07
2018-11-05T05:36:28.029Z,46.97
2018-11-05T05:38:56.678Z,49.17
2018-11-05T05:41:25.401Z,46.37
2018-11-05T05:43:53.993Z,49.00
2018-11-05T05:46:22.666Z,48.87
2018-11-05T05:48:51.353Z,47.90
2018-11-05T05:51:19.970Z,44.53
2018-11-05T05:53:48.638Z,48.20
2018-11-05T05:56:21.230Z,49.23
2018-11-05T05:58:49.967Z,45.80
2018-11-05T06:01:18.592Z,47.47
2018-11-05T06:03:47.319Z,46.00
2018-11-05T06:06:16.104Z,44.17
2018-11-05T06:08:44.690Z,45.37
2018-11-05T06:11:13.295Z,45.70
2018-11-05T06:13:41.960Z,44.83
2018-11-05T06:16:10.609Z,41.33
2018-11-05T06:18:39.255Z,42.77
2018-11-05T06:21:07.909Z,43.40
2018-11-05T06:23:36.589Z,45.50
2018-11-05T06:26:05.415Z,49.27
2018-11-05T06:28:34.135Z,50.20
2018-11-05T06:31:02.777Z,48.10
2018-11-05T06:33:31.464Z,48.63
2018-11-05T06:36:00.146Z,48.10
2018-11-05T06:38:28.749Z,50.23
2018-11-05T06:40:57.425Z,51.37
2018-11-05T06:43:26.113Z,51.17
2018-11-05T06:45:54.719Z,51.07
2018-11-05T06:48:23.411Z,52.10
2018-11-05T06:50:52.085Z,49.33
2018-11-05T06:53:21.144Z,53.80
2018-11-05T06:55:49.859Z,49.80
2018-11-05T06:58:18.510Z,50.23
2018-11-05T07:00:47.192Z,49.40
2018-11-05T07:03:15.917Z,50.97
2018-11-05T07:05:44.613Z,52.53
2018-11-05T07:08:13.317Z,51.50
2018-11-05T07:10:42.024Z,50.97
2018-11-05T07:13:10.797Z,49.00
2018-11-05T07:15:39.453Z,48.07
2018-11-05T07:18:08.244Z,47.13
2018-11-05T07:20:36.909Z,49.10
2018-11-05T07:23:05.898Z,48.07
2018-11-05T07:25:34.490Z,49.40
2018-11-05T07:28:03.081Z,48.37
2018-11-05T07:30:31.743Z,48.80
2018-11-05T07:33:00.433Z,46.30
2018-11-05T07:35:29.173Z,47.90
2018-11-05T07:37:58.400Z,46.83
2018-11-05T07:40:27.094Z,48.10
2018-11-05T07:42:55.743Z,46.57
2018-11-05T07:45:24.881Z,44.90
2018-11-05T07:47:53.552Z,45.90
2018-11-05T07:50:22.681Z,45.50
2018-11-05T07:52:51.916Z,46.37
2018-11-05T07:55:20.683Z,43.57
2018-11-05T07:57:51.013Z,44.03
2018-11-05T08:00:24.891Z,45.73
2018-11-05T08:02:54.904Z,44.83
2018-11-05T08:05:24.289Z,49.20
2018-11-05T08:07:52.988Z,42.53
2018-11-05T08:10:21.741Z,42.10
2018-11-05T08:12:50.529Z,42.80
2018-11-05T08:15:20.499Z,42.10
2018-11-05T08:17:50.153Z,43.40
2018-11-05T08:20:18.873Z,43.67
2018-11-05T08:22:47.545Z,45.07
2018-11-05T08:25:16.935Z,44.00
2018-11-05T08:27:45.644Z,42.70
2018-11-05T08:30:16.987Z,43.13
2018-11-05T08:32:45.591Z,43.00
2018-11-05T08:35:14.711Z,42.40
2018-11-05T08:37:44.523Z,42.83
2018-11-05T08:40:15.522Z,43.30
2018-11-05T08:42:44.946Z,42.50
2018-11-05T08:45:14.979Z,40.83
2018-11-05T08:47:43.713Z,42.77
2018-11-05T08:50:13.841Z,40.10
2018-11-05T08:52:42.588Z,42.10
2018-11-05T08:55:13.677Z,38.60
2018-11-05T08:57:42.812Z,41.53
2018-11-05T09:00:16.133Z,38.40
2018-11-05T09:02:45.929Z,38.00
2018-11-05T09:05:15.075Z,37.87
2018-11-05T09:07:44.518Z,37.80
2018-11-05T09:10:13.418Z,38.93
2018-11-05T09:12:42.282Z,41.40
2018-11-05T09:15:13.089Z,39.53
2018-11-05T09:17:42.523Z,38.93
2018-11-05T09:20:12.480Z,36.53
2018-11-05T09:22:41.188Z,38.17
2018-11-05T09:25:10.831Z,38.33
2018-11-05T09:27:39.551Z,36.10
2018-11-05T09:30:12.541Z,38.30
2018-11-05T09:32:41.349Z,36.17
2018-11-05T09:35:10.482Z,39.07
2018-11-05T09:37:39.480Z,38.17
2018-11-05T09:40:10.472Z,37.20
2018-11-05T09:42:39.955Z,36.27
2018-11-05T09:45:12.925Z,34.43
2018-11-05T09:47:41.892Z,33.57
2018-11-05T09:50:11.116Z,36.90
2018-11-05T09:52:39.889Z,36.50
2018-11-05T09:55:09.512Z,34.40
2018-11-05T09:57:38.179Z,33.77
2018-11-05T10:00:10.468Z,33.30
2018-11-05T10:02:44.569Z,34.23
2018-11-05T10:05:14.085Z,33.40
2018-11-05T10:07:42.984Z,33.77
2018-11-05T10:10:12.657Z,37.53
2018-11-05T10:12:41.543Z,33.87
2018-11-05T10:15:11.462Z,33.10
2018-11-05T10:17:40.588Z,33.30
2018-11-05T10:20:11.738Z,33.27
2018-11-05T10:22:40.445Z,31.40
2018-11-05T10:25:10.587Z,33.10
2018-11-05T10:27:39.226Z,32.97
2018-11-05T10:30:11.216Z,33.13
2018-11-05T10:32:40.191Z,31.60
2018-11-05T10:35:08.971Z,31.30
2018-11-05T10:37:37.793Z,31.60
2018-11-05T10:40:09.287Z,33.07
2018-11-05T10:42:37.924Z,31.53
2018-11-05T10:45:07.723Z,30.83
2018-11-05T10:47:36.707Z,31.40
2018-11-05T10:50:05.722Z,34.97
2018-11-05T10:52:34.413Z,31.80
2018-11-05T10:55:03.162Z,31.30
2018-11-05T10:57:31.996Z,31.70
2018-11-05T11:00:00.560Z,31.07
2018-11-05T11:02:34.518Z,30.77
2018-11-05T11:05:03.230Z,30.10
2018-11-05T11:07:31.890Z,29.77
2018-11-05T11:10:00.516Z,31.87
2018-11-05T11:12:29.158Z,29.57
2018-11-05T11:14:57.843Z,33.63
2018-11-05T11:17:26.509Z,29.73
2018-11-05T11:19:55.166Z,29.13
2018-11-05T11:22:23.865Z,30.17
2018-11-05T11:24:52.548Z,30.30
2018-11-05T11:27:21.160Z,28.67
2018-11-05T11:29:49.799Z,31.77
2018-11-05T11:32:18.494Z,29.93
2018-11-05T11:34:47.197Z,28.73
2018-11-05T11:37:15.848Z,31.23
2018-11-05T11:39:44.508Z,30.50
2018-11-05T11:42:13.204Z,31.00
2018-11-05T11:44:41.845Z,29.17
2018-11-05T11:47:10.487Z,28.50
2018-11-05T11:49:39.170Z,28.57
2018-11-05T11:52:08.213Z,26.83
2018-11-05T11:54:36.882Z,28.57
2018-11-05T11:57:05.976Z,27.33
2018-11-05T11:59:34.717Z,28.23
2018-11-05T12:02:08.774Z,28.40
2018-11-05T12:04:37.401Z,26.80
2018-11-05T12:07:06.743Z,29.10
2018-11-05T12:09:35.443Z,27.90
2018-11-05T12:12:04.078Z,26.40
2018-11-05T12:14:32.801Z,25.83
2018-11-05T12:17:01.454Z,28.30
2018-11-05T12:19:30.154Z,26.90
2018-11-05T12:21:58.795Z,26.47
2018-11-05T12:24:27.673Z,28.10
2018-11-05T12:26:56.392Z,30.50
2018-11-05T12:29:25.081Z,27.00
2018-11-05T12:31:53.744Z,26.37
2018-11-05T12:34:22.441Z,28.17
2018-11-05T12:36:51.088Z,28.50
2018-11-05T12:39:19.740Z,27.17
2018-11-05T12:41:48.534Z,26.37
2018-11-05T12:44:17.209Z,27.33
2018-11-05T12:46:45.794Z,27.57
2018-11-05T12:49:14.519Z,26.73
2018-11-05T12:51:43.193Z,25.63
2018-11-05T12:54:11.864Z,25.47
2018-11-05T12:56:40.498Z,25.97
2018-11-05T12:59:09.195Z,26.50
2018-11-05T13:01:37.821Z,27.40
2018-11-05T13:04:06.857Z,27.93
2018-11-05T13:06:35.460Z,27.37
2018-11-05T13:09:05.756Z,26.27
2018-11-05T13:11:34.433Z,26.17
2018-11-05T13:14:03.158Z,25.60
2018-11-05T13:16:31.996Z,25.80
2018-11-05T13:19:00.806Z,26.53
2018-11-05T13:21:29.388Z,28.30
2018-11-05T13:23:58.059Z,24.83
2018-11-05T13:26:26.694Z,25.20
2018-11-05T13:28:55.324Z,26.00
2018-11-05T13:31:24.214Z,26.87
2018-11-05T13:33:52.884Z,27.10
2018-11-05T13:36:21.570Z,26.57
2018-11-05T13:38:50.262Z,26.93
2018-11-05T13:41:18.905Z,26.23
2018-11-05T13:43:47.733Z,26.70
2018-11-05T13:46:16.793Z,28.03
2018-11-05T13:48:45.703Z,27.47
2018-11-05T13:51:13.810Z,25.87
2018-11-05T13:53:42.528Z,26.43
2018-11-05T13:56:11.205Z,24.90
2018-11-05T13:58:39.959Z,27.50
2018-11-05T14:01:08.549Z,25.53
2018-11-05T14:03:37.166Z,25.43
2018-11-05T14:06:05.903Z,25.80
2018-11-05T14:08:34.595Z,28.30
2018-11-05T14:11:03.291Z,27.20
2018-11-05T14:13:31.945Z,29.70
2018-11-05T14:16:00.610Z,26.40
2018-11-05T14:18:29.394Z,25.57
2018-11-05T14:20:58.013Z,27.20
2018-11-05T14:23:26.670Z,25.40
2018-11-05T14:25:55.367Z,24.93
2018-11-05T14:28:24.180Z,25.60
2018-11-05T14:30:52.756Z,25.40
2018-11-05T14:33:21.415Z,26.53
2018-11-05T14:35:50.117Z,25.90
2018-11-05T14:38:18.825Z,24.10
2018-11-05T14:40:47.526Z,24.97
2018-11-05T14:43:16.309Z,26.83
2018-11-05T14:45:44.961Z,24.60
2018-11-05T14:48:13.610Z,25.53
2018-11-05T14:50:42.343Z,27.80
2018-11-05T14:53:10.982Z,25.90
2018-11-05T14:55:39.685Z,23.13
2018-11-05T14:58:08.296Z,25.23
2018-11-05T15:00:36.995Z,24.20
2018-11-05T15:03:05.781Z,25.30
2018-11-05T15:05:34.441Z,26.40
2018-11-05T15:08:03.137Z,25.33
2018-11-05T15:10:31.834Z,25.00
2018-11-05T15:13:00.656Z,26.40
2018-11-05T15:15:29.353Z,26.13
2018-11-05T15:17:58.023Z,25.30
2018-11-05T15:20:26.783Z,25.80
2018-11-05T15:22:55.464Z,27.60
2018-11-05T15:25:24.130Z,26.43
2018-11-05T15:27:52.791Z,28.37
2018-11-05T15:30:22.737Z,27.00
2018-11-05T15:32:51.456Z,26.20
2018-11-05T15:35:20.109Z,27.00
2018-11-05T15:37:48.823Z,26.17
2018-11-05T15:40:18.874Z,26.07
2018-11-05T15:42:47.593Z,27.00
2018-11-05T15:45:17.458Z,28.67
2018-11-05T15:47:46.142Z,28.87
2018-11-05T15:50:16.056Z,28.70
2018-11-05T15:52:45.141Z,25.33
2018-11-05T15:55:13.850Z,27.43
2018-11-05T15:57:42.493Z,30.53
2018-11-05T16:00:18.393Z,30.83
2018-11-05T16:02:49.511Z,28.53
2018-11-05T16:05:18.557Z,28.90
2018-11-05T16:07:47.401Z,30.90
2018-11-05T16:10:16.441Z,28.37
2018-11-05T16:12:45.081Z,32.10
2018-11-05T16:15:14.056Z,29.27
2018-11-05T16:17:42.710Z,31.57
2018-11-05T16:20:21.813Z,32.40
2018-11-05T16:22:51.261Z,31.53
2018-11-05T16:25:20.002Z,32.30
2018-11-05T16:27:48.730Z,32.87
2018-11-05T16:30:18.830Z,32.77
2018-11-05T16:32:48.096Z,32.27
2018-11-05T16:35:16.840Z,31.30
2018-11-05T16:37:45.553Z,33.40
2018-11-05T16:40:15.522Z,31.77
2018-11-05T16:42:45.016Z,32.63
2018-11-05T16:45:13.729Z,29.37
2018-11-05T16:47:42.677Z,33.33
2018-11-05T16:50:13.165Z,31.83
2018-11-05T16:52:41.777Z,30.10
2018-11-05T16:55:12.089Z,33.13
2018-11-05T16:57:41.374Z,32.77
2018-11-05T17:00:10.368Z,31.70
2018-11-05T17:02:39.211Z,32.93
2018-11-05T17:05:07.845Z,34.67
2018-11-05T17:07:36.515Z,34.67
2018-11-05T17:10:06.353Z,34.80
2018-11-05T17:12:35.021Z,33.87
2018-11-05T17:15:03.716Z,36.87
2018-11-05T17:17:32.309Z,37.43
2018-11-05T17:20:01.041Z,38.30
2018-11-05T17:22:29.842Z,40.00
2018-11-05T17:24:58.520Z,41.73
2018-11-05T17:27:27.220Z,38.77
2018-11-05T17:29:55.941Z,42.80
2018-11-05T17:32:24.571Z,41.87
2018-11-05T17:34:53.184Z,39.83
2018-11-05T17:37:21.887Z,40.60
2018-11-05T17:39:50.573Z,42.53
2018-11-05T17:42:19.261Z,43.10
2018-11-05T17:44:47.932Z,41.60
2018-11-05T17:47:16.637Z,40.50
2018-11-05T17:49:45.394Z,39.83
2018-11-05T17:52:14.204Z,39.90
2018-11-05T17:54:42.902Z,41.77
2018-11-05T17:57:11.572Z,41.77
2018-11-05T17:59:40.366Z,46.10
2018-11-05T18:02:13.309Z,39.67
2018-11-05T18:04:42.035Z,42.40
2018-11-05T18:07:10.776Z,42.13
2018-11-05T18:09:39.571Z,41.90
2018-11-05T18:12:08.317Z,43.47
2018-11-05T18:14:37.004Z,44.57
2018-11-05T18:17:05.968Z,45.00
2018-11-05T18:19:34.637Z,49.73
2018-11-05T18:22:03.337Z,49.00
2018-11-05T18:24:32.120Z,47.60
2018-11-05T18:27:00.708Z,50.40
2018-11-05T18:29:29.378Z,48.83
2018-11-05T18:31:58.048Z,52.07
2018-11-05T18:34:26.752Z,48.60
2018-11-05T18:36:55.380Z,50.70
2018-11-05T18:39:24.089Z,47.27
2018-11-05T18:41:52.748Z,46.97
2018-11-05T18:44:21.373Z,49.17
2018-11-05T18:46:50.053Z,47.27
2018-11-05T18:49:18.770Z,48.33
2018-11-05T18:51:47.589Z,49.90
2018-11-05T18:54:16.109Z,49.00
2018-11-05T18:56:44.792Z,47.77
2018-11-05T18:59:13.413Z,50.40
2018-11-05T19:01:42.105Z,49.10
2018-11-05T19:04:10.771Z,47.47
2018-11-05T19:06:39.403Z,53.97
2018-11-05T19:09:08.053Z,49.47
2018-11-05T19:11:36.684Z,48.27
2018-11-05T19:14:05.909Z,49.37
2018-11-05T19:16:34.526Z,50.67
2018-11-05T19:19:03.161Z,54.10
2018-11-05T19:21:31.878Z,51.43
2018-11-05T19:24:00.752Z,50.30
2018-11-05T19:26:29.179Z,53.73
2018-11-05T19:28:57.833Z,51.83
2018-11-05T19:31:26.493Z,54.50
2018-11-05T19:33:55.171Z,52.17
2018-11-05T19:36:23.777Z,55.10
2018-11-05T19:38:52.441Z,53.80
2018-11-05T19:41:21.044Z,54.23
2018-11-05T19:43:49.754Z,54.83
2018-11-05T19:46:18.368Z,51.97
2018-11-05T19:48:46.949Z,50.80
2018-11-05T19:51:15.599Z,53.33
2018-11-05T19:53:44.282Z,53.60
2018-11-05T19:56:13.007Z,53.63
2018-11-05T19:58:41.697Z,55.63
2018-11-05T20:01:10.430Z,57.07
2018-11-05T20:03:39.200Z,52.60
2018-11-05T20:06:07.986Z,52.10
2018-11-05T20:08:36.623Z,52.97
2018-11-05T20:11:05.809Z,55.30
2018-11-05T20:13:34.622Z,54.07
2018-11-05T20:16:03.392Z,54.37
2018-11-05T20:18:32.148Z,50.77
2018-11-05T20:21:00.729Z,53.30
2018-11-05T20:23:29.400Z,52.80
2018-11-05T20:25:58.144Z,57.20
2018-11-05T20:28:27.000Z,54.10
2018-11-05T20:30:55.778Z,54.57
2018-11-05T20:33:24.736Z,52.30
2018-11-05T20:35:53.247Z,51.37
2018-11-05T20:38:21.958Z,51.90
2018-11-05T20:40:50.747Z,51.13
2018-11-05T20:43:19.557Z,50.50
2018-11-05T20:45:48.341Z,51.10
2018-11-05T20:48:17.066Z,50.40
2018-11-05T20:50:46.127Z,49.50
2018-11-05T20:53:15.049Z,50.17
2018-11-05T20:55:43.831Z,49.73
2018-11-05T20:58:12.682Z,50.40
2018-11-05T21:00:41.440Z,47.60
2018-11-05T21:03:10.080Z,44.60
2018-11-05T21:05:38.799Z,49.33
2018-11-05T21:08:07.499Z,47.50
2018-11-05T21:10:36.275Z,46.90
2018-11-05T21:13:05.043Z,45.37
2018-11-05T21:15:33.778Z,45.83
2018-11-05T21:18:02.496Z,44.50
2018-11-05T21:20:31.166Z,45.33
2018-11-05T21:22:59.840Z,48.30
2018-11-05T21:25:28.548Z,49.03
2018-11-05T21:27:58.138Z,49.20
2018-11-05T21:30:26.860Z,48.60
2018-11-05T21:32:55.578Z,45.47
2018-11-05T21:35:24.303Z,48.80
2018-11-05T21:37:52.965Z,52.80
2018-11-05T21:40:21.648Z,52.17
2018-11-05T21:42:50.350Z,50.83
2018-11-05T21:45:19.049Z,49.03
2018-11-05T21:47:47.736Z,47.33
2018-11-05T21:50:17.686Z,46.50
2018-11-05T21:52:46.773Z,49.03
2018-11-05T21:55:15.420Z,47.33
2018-11-05T21:57:45.570Z,50.90
2018-11-05T22:00:17.690Z,47.93
2018-11-05T22:02:51.520Z,43.67
2018-11-05T22:05:20.194Z,47.23
2018-11-05T22:07:49.013Z,46.67
2018-11-05T22:10:17.801Z,43.80
2018-11-05T22:12:46.914Z,49.67
2018-11-05T22:15:15.572Z,47.53
2018-11-05T22:17:44.249Z,44.80
2018-11-05T22:20:13.332Z,46.47
2018-11-05T22:22:42.092Z,47.33
2018-11-05T22:25:11.381Z,46.23
2018-11-05T22:27:40.608Z,43.70
2018-11-05T22:30:10.423Z,44.97
2018-11-05T22:32:39.141Z,45.60
2018-11-05T22:35:08.041Z,48.67
2018-11-05T22:37:36.983Z,43.67
2018-11-05T22:40:07.849Z,43.90
2018-11-05T22:42:36.539Z,45.00
2018-11-05T22:45:05.478Z,46.80
2018-11-05T22:47:34.179Z,43.83
2018-11-05T22:50:02.970Z,42.83
2018-11-05T22:52:31.716Z,43.13
2018-11-05T22:55:00.541Z,46.93
2018-11-05T22:57:29.270Z,43.13
2018-11-05T22:59:58.086Z,44.87
2018-11-05T23:02:26.729Z,42.73
2018-11-05T23:04:55.461Z,44.80
2018-11-05T23:07:24.148Z,43.77
2018-11-05T23:09:52.949Z,44.30
2018-11-05T23:12:21.758Z,44.10
2018-11-05T23:14:50.423Z,42.90
2018-11-05T23:17:19.195Z,43.10
2018-11-05T23:19:47.966Z,41.90
2018-11-05T23:22:16.830Z,44.07
2018-11-05T23:24:45.507Z,40.90
2018-11-05T23:27:14.311Z,39.47
2018-11-05T23:29:43.024Z,41.00
2018-11-05T23:32:11.697Z,43.47
2018-11-05T23:34:40.471Z,39.57
2018-11-05T23:37:09.267Z,40.40
2018-11-05T23:39:37.994Z,41.47
2018-11-05T23:42:06.897Z,41.47
2018-11-05T23:44:36.703Z,41.00
2018-11-05T23:47:05.556Z,44.53
2018-11-05T23:49:34.441Z,43.70
2018-11-05T23:52:03.191Z,45.80
2018-11-05T23:54:32.781Z,41.53
2018-11-05T23:57:02.169Z,41.73
2018-11-05T23:59:31.166Z,40.87
